METAR Data
IDs: Format: Raw Decoded Include TAF

Data at: 0746 UTC 23 Feb 2019

KSEP 230735Z AUTO 14007KT 1/4SM OVC001 09/09 A2981 RMK AO2 T00930085
KSEP 230715Z AUTO 14006KT 1/2SM OVC001 09/09 A2981 RMK AO2 T00930085
KSEP 230655Z AUTO 15006KT 1SM OVC001 09/09 A2982 RMK AO2 T00930085
KSEP 230635Z AUTO 14003KT 1 1/4SM OVC001 09/09 A2981 RMK AO2 T00920085
KSEP 230615Z AUTO 13006KT 1 1/4SM OVC001 09/09 A2982 RMK AO2 T00920085
KSEP 230555Z AUTO 13003KT 1/4SM OVC001 09/08 A2983 RMK AO2 T00910083 10097 20090 401010075
KSEP 230535Z AUTO 14006KT 1/4SM OVC001 09/08 A2985 RMK AO2 T00910083
KSEP 230515Z AUTO 14007KT 1/2SM OVC001 09/08 A2986 RMK AO2 T00910083
KSEP 230455Z AUTO 13006KT 1/4SM OVC001 09/08 A2987 RMK AO2 T00900082
KSEP 230435Z AUTO 13005KT 1/4SM OVC001 09/08 A2988 RMK AO2 T00900082
KSEP 230415Z AUTO 14004KT 1/2SM OVC001 09/08 A2990 RMK AO2 T00910083
KSEP 230355Z AUTO 13003KT 1/2SM OVC001 09/08 A2990 RMK AO2 T00910083
KSEP 230335Z AUTO 14005KT 1/2SM OVC001 09/08 A2990 RMK AO2 T00900082
KSEP 230315Z AUTO 14007KT 3/4SM OVC001 09/08 A2990 RMK AO2 T00900081
KSEP 230255Z AUTO 14005KT 1/4SM OVC001 09/08 A2991 RMK AO2 T00900080
KSEP 230235Z AUTO 13008KT 1/4SM OVC001 09/08 A2991 RMK AO2 T00900082
KSEP 230215Z AUTO 12008KT 3/4SM OVC001 09/08 A2991 RMK AO2 T00920084
KSEP 230155Z AUTO 12006KT 3/4SM OVC001 09/09 A2990 RMK AO2 T00920085
KSEP 230135Z AUTO 12007KT 1/2SM OVC001 09/08 A2990 RMK AO2 T00920083
KSEP 230115Z AUTO 11006KT 1/2SM OVC001 09/08 A2990 RMK AO2 T00910082
KSEP 230055Z AUTO 08006KT 1 1/4SM OVC001 09/08 A2990 RMK AO2 T00930084
KSEP 230035Z AUTO 09008KT 1/4SM OVC001 10/09 A2990 RMK AO2 T00950085
KSEP 230015Z AUTO 08008KT 1/4SM OVC001 10/09 A2990 RMK AO2 T00950086
KSEP 222355Z AUTO 08008KT 1/2SM OVC001 10/09 A2990 RMK AO2 P0001 60001 T00970088 10101 20087
KSEP 222335Z AUTO 09005KT 1SM OVC001 10/09 A2990 RMK AO2 T00970089
KSEP 222315Z AUTO 09008KT 1 1/4SM OVC001 10/09 A2991 RMK AO2 T00980090
KSEP 222255Z AUTO 11005KT 1 1/4SM OVC001 10/09 A2992 RMK AO2 T00990090
KSEP 222235Z AUTO 10006KT 3/4SM OVC001 10/09 A2992 RMK AO2 T01000091
KSEP 222215Z AUTO 11004KT 3/4SM OVC001 10/09 A2992 RMK AO2 T01000090
KSEP 222155Z AUTO 12003KT 1SM OVC001 10/09 A2993 RMK AO2 T00970089
KSEP 222135Z AUTO 12004KT 1 1/2SM OVC001 10/09 A2993 RMK AO2 T00960087
KSEP 222115Z AUTO 11003KT 3/4SM OVC001 10/09 A2993 RMK AO2 T00970088
KSEP 222055Z AUTO 10004KT 3/4SM OVC003 10/09 A2994 RMK AO2 T00950086
KSEP 222035Z AUTO 08004KT 1SM OVC003 10/09 A2994 RMK AO2 T00950086
KSEP 222015Z AUTO 08004KT 1 3/4SM OVC003 10/09 A2994 RMK AO2 T00950085
KSEP 221955Z AUTO 07005KT 1SM OVC001 10/09 A2994 RMK AO2 T00950086
KSEP 221935Z AUTO 07006KT 1SM OVC001 09/08 A2996 RMK AO2 T00920084
KSEP 221915Z AUTO 08007KT 3/4SM OVC001 09/08 A2997 RMK AO2 T00900082
KSEP 221855Z AUTO 09006KT 1 3/4SM OVC003 09/08 A2998 RMK AO2 T00910082
KSEP 221835Z AUTO 08007KT 1 1/4SM OVC003 09/08 A2999 RMK AO2 T00900081
KSEP 221815Z AUTO 07006KT 2SM OVC003 09/08 A3000 RMK AO2 VIS 1V4 T00900081
KSEP 221755Z AUTO 06006KT 3SM OVC003 09/08 A3002 RMK AO2 60001 T00880080 10090 20075
KSEP 221735Z AUTO 07006KT 4SM OVC003 08/07 A3002 RMK AO2 T00820074
KSEP 221715Z AUTO 08007KT 3SM OVC003 08/08 A3003 RMK AO2 T00830075
KSEP 221655Z AUTO 06006KT 4SM OVC003 08/08 A3002 RMK AO2 T00820075
KSEP 221635Z AUTO 06007KT 1 3/4SM OVC001 08/07 A3002 RMK AO2 T00800072
KSEP 221615Z AUTO 06005KT 3/4SM OVC001 08/07 A3003 RMK AO2 T00800070
KSEP 221555Z AUTO 05007KT 1SM OVC001 08/07 A3003 RMK AO2 T00800071
KSEP 221535Z AUTO 04006KT 1/2SM OVC001 08/07 A3003 RMK AO2 T00800070
KSEP 221515Z AUTO 03006KT 1/2SM OVC001 08/07 A3002 RMK AO2 T00790070
KSEP 221455Z AUTO 02005KT 1/2SM OVC001 08/07 A3002 RMK AO2 60001 T00790070
KSEP 221435Z AUTO 01004KT 1/2SM OVC001 08/07 A3001 RMK AO2 T00790070
KSEP 221415Z AUTO 01003KT 3/4SM OVC001 08/07 A3001 RMK AO2 T00780070
KSEP 221355Z AUTO 03004KT 1/2SM OVC001 08/07 A3000 RMK AO2 T00780070
KSEP 221335Z AUTO 00000KT 3/4SM OVC001 08/07 A3000 RMK AO2 T00770068
KSEP 221315Z AUTO 00000KT 1SM OVC001 08/07 A3001 RMK AO2 T00760067
KSEP 221255Z AUTO 00000KT 1SM OVC001 08/07 A3000 RMK AO2 P0001 T00760067
KSEP 221235Z AUTO 00000KT 3/4SM OVC001 08/07 A2999 RMK AO2 P0001 T00760067
KSEP 221215Z AUTO 20004KT 1/2SM OVC001 08/07 A3001 RMK AO2 T00750066
KSEP 221155Z AUTO 17004KT 3/4SM OVC001 08/07 A2999 RMK AO2 P0001 60002 70003 T00750065 10080 20075
KSEP 221135Z AUTO 00000KT 1SM OVC001 08/07 A2995 RMK AO2 P0001 T00750065
KSEP 221115Z AUTO 10008KT 1SM OVC001 08/07 A2994 RMK AO2 P0001 T00750065
KSEP 221055Z AUTO 09006KT 3/4SM OVC001 08/07 A2994 RMK AO2 T00750065
KSEP 221035Z AUTO 06006KT 3/4SM OVC001 08/07 A2992 RMK AO2 T00750065
KSEP 221015Z AUTO 08006KT 3/4SM OVC001 08/07 A2994 RMK AO2 T00750065
KSEP 220955Z AUTO 10007KT 3/4SM OVC001 08/07 A2994 RMK AO2 T00750065
KSEP 220935Z AUTO 11009KT 1 1/4SM OVC001 08/06 A2994 RMK AO2 T00750063
KSEP 220915Z AUTO 36005KT 1 1/2SM OVC003 08/06 A2997 RMK AO2 T00750062
KSEP 220855Z AUTO 09014KT 1 1/4SM OVC003 08/06 A2992 RMK AO2 P0001 60001 T00750062
KSEP 220835Z AUTO 13005KT 4SM OVC003 08/06 A2998 RMK AO2 T00750061
KSEP 220815Z AUTO 11010KT 5SM OVC005 08/06 A2998 RMK AO2 T00760061
KSEP 220755Z AUTO 15006KT 7SM OVC005 08/06 A3000 RMK AO2 T00760060
KSEP 220735Z AUTO 11007KT 7SM OVC005 08/06 A2998 RMK AO2 T00770060
KSEP 220715Z AUTO 12007KT 10SM OVC007 08/06 A3000 RMK AO2 T00770060
KSEP 220655Z AUTO 11008KT 7SM OVC007 08/06 A2999 RMK AO2 T00780060
KSEP 220635Z AUTO 10007KT 10SM OVC007 08/06 A3000 RMK AO2 T00800058
KSEP 220615Z AUTO 11007KT 10SM OVC007 08/06 A2999 RMK AO2 T00800057
KSEP 220555Z AUTO 10011KT 10SM OVC009 08/06 A2999 RMK AO2 T00800056 10097 20080 401200050
KSEP 220535Z AUTO 11006KT 10SM OVC009 08/06 A3000 RMK AO2 T00800056
KSEP 220515Z AUTO 11008KT 10SM OVC009 08/05 A3000 RMK AO2 T00810053
KSEP 220455Z AUTO 11009KT 10SM OVC011 08/05 A3000 RMK AO2 T00820050
KSEP 220435Z AUTO 11008KT 10SM OVC011 08/05 A3001 RMK AO2 T00820050
KSEP 220415Z AUTO 09007KT 10SM OVC013 08/05 A2998 RMK AO2 T00830047
KSEP 220355Z AUTO 09008KT 10SM SCT013 OVC025 08/05 A2998 RMK AO2 T00830045
KSEP 220335Z AUTO 08008KT 10SM OVC027 09/04 A2998 RMK AO2 T00850043
KSEP 220315Z AUTO 09007KT 10SM OVC027 09/04 A2999 RMK AO2 T00850041
KSEP 220255Z AUTO 09008KT 10SM OVC027 09/04 A2999 RMK AO2 T00860040
KSEP 220235Z AUTO 08006KT 10SM OVC032 09/04 A2999 RMK AO2 T00870038
KSEP 220215Z AUTO 05005KT 10SM OVC034 09/04 A2999 RMK AO2 T00880035
KSEP 220155Z AUTO 04005KT 10SM OVC034 09/03 A2997 RMK AO2 T00890034
KSEP 220135Z AUTO 08007KT 10SM BKN036 OVC045 09/04 A2996 RMK AO2 T00900037
KSEP 220115Z AUTO 05004KT 10SM SCT039 OVC046 09/04 A2997 RMK AO2 T00920038
KSEP 220055Z AUTO 07005KT 10SM SCT039 SCT046 09/04 A2996 RMK AO2 T00920037
KSEP 220035Z AUTO 08007KT 10SM CLR 09/04 A2994 RMK AO2 T00930036
KSEP 220015Z AUTO 09005KT 10SM CLR 10/04 A2994 RMK AO2 T00950036
KSEP 212355Z AUTO 12005G08KT 10SM CLR 10/04 A2993 RMK AO2 T00970037 10120 20088
KSEP 212335Z AUTO 11010G16KT 10SM CLR 10/04 A2991 RMK AO2 T01000040
KSEP 212315Z AUTO 12009KT 10SM CLR 10/04 A2991 RMK AO2 T01020039
KSEP 212255Z AUTO 11011KT 10SM CLR 11/04 A2991 RMK AO2 T01060035
KSEP 212235Z AUTO 10011KT 10SM CLR 11/03 A2993 RMK AO2 T01080031
KSEP 212215Z AUTO 11009KT 10SM SCT060 12/03 A2994 RMK AO2 T01150032
KSEP 212155Z AUTO 10009KT 10SM SCT060 12/03 A2994 RMK AO2 T01160030
KSEP 212135Z AUTO 12008KT 10SM SCT060 12/03 A2996 RMK AO2 T01160029
KSEP 212115Z AUTO 11006KT 10SM SCT060 12/03 A2996 RMK AO2 T01170025
KSEP 212055Z AUTO 11008KT 10SM SCT060 12/02 A2997 RMK AO2 T01160019
KSEP 212035Z AUTO 10005KT 10SM CLR 12/03 A2996 RMK AO2 T01160029
KSEP 212015Z AUTO 12010KT 10SM CLR 11/02 A2996 RMK AO2 T01120018
KSEP 211955Z AUTO 09010KT 10SM CLR 11/03 A2997 RMK AO2 T01140025